Time;durP1;ratioP1;P1;durP2;ratioP2;P2;SDS_P1;SDS_P2;PMS_P1;PMS_P2;Temp;Humidity;BMP_temperature;BMP_pressure;BME280_temperature;BME280_humidity;BME280_pressure;Samples;Min_cycle;Max_cycle;Signal;HPM_P1;HPM_P2
2021/01/05 00:02:21;;;;;;;26.17;11.07;;;;;;;;;;5023232;28;20227;-80
2021/01/05 00:04:51;;;;;;;26.07;12.07;;;;;;;;;;5034610;28;20211;-81
2021/01/05 00:07:22;;;;;;;24.83;10.73;;;;;;;;;;5033037;28;20231;-80
2021/01/05 00:09:52;;;;;;;24.17;11.40;;;;;;;;;;5042973;28;20216;-81
2021/01/05 00:12:23;;;;;;;30.90;12.50;;;;;;;;;;5038078;28;20232;-79
2021/01/05 00:14:53;;;;;;;22.60;11.37;;;;;;;;;;5060234;28;20206;-79
2021/01/05 00:17:25;;;;;;;28.27;11.87;;;;;;;;;;5063056;28;20213;-82
2021/01/05 00:19:56;;;;;;;26.17;11.13;;;;;;;;;;5025268;28;20236;-79
2021/01/05 00:22:28;;;;;;;28.17;11.63;;;;;;;;;;5037936;28;20232;-79
2021/01/05 00:24:59;;;;;;;26.27;11.17;;;;;;;;;;5031951;28;20207;-81
2021/01/05 00:27:29;;;;;;;26.37;11.97;;;;;;;;;;5022478;28;20209;-79
2021/01/05 00:30:02;;;;;;;30.83;11.37;;;;;;;;;;5041304;28;20207;-79
2021/01/05 00:32:34;;;;;;;23.30;11.17;;;;;;;;;;5020272;28;20232;-81
2021/01/05 00:35:06;;;;;;;29.27;11.90;;;;;;;;;;5018968;28;20200;-78
2021/01/05 00:37:38;;;;;;;31.37;13.93;;;;;;;;;;5025700;28;20204;-78
2021/01/05 00:40:10;;;;;;;25.67;12.00;;;;;;;;;;5041860;28;20220;-78
2021/01/05 00:42:40;;;;;;;25.33;11.30;;;;;;;;;;5046695;28;20602;-81
2021/01/05 00:45:11;;;;;;;26.63;11.27;;;;;;;;;;5019128;28;20209;-80
2021/01/05 00:47:40;;;;;;;22.50;11.37;;;;;;;;;;5047065;28;20199;-79
2021/01/05 00:50:10;;;;;;;26.80;11.30;;;;;;;;;;5027834;28;20199;-80
2021/01/05 00:52:40;;;;;;;25.23;10.93;;;;;;;;;;5042094;28;20231;-80
2021/01/05 00:55:12;;;;;;;26.47;11.83;;;;;;;;;;5033188;28;20215;-79
2021/01/05 00:57:44;;;;;;;25.70;10.27;;;;;;;;;;5029373;28;20207;-80
2021/01/05 01:00:15;;;;;;;24.60;10.87;;;;;;;;;;5025784;28;20196;-80
2021/01/05 01:02:43;;;;;;;26.90;10.63;;;;;;;;;;5057266;28;20220;-79
2021/01/05 01:05:12;;;;;;;27.30;11.83;;;;;;;;;;5048866;28;20215;-80
2021/01/05 01:07:42;;;;;;;25.63;11.80;;;;;;;;;;5049594;28;20218;-80
2021/01/05 01:10:12;;;;;;;29.00;11.67;;;;;;;;;;5035428;28;20208;-80
2021/01/05 01:12:41;;;;;;;23.37;10.70;;;;;;;;;;5032923;28;20224;-80
2021/01/05 01:15:11;;;;;;;30.23;11.93;;;;;;;;;;5041310;28;20216;-80
2021/01/05 01:17:39;;;;;;;27.63;12.50;;;;;;;;;;5029153;28;20206;-80
2021/01/05 01:20:10;;;;;;;27.10;12.10;;;;;;;;;;5019518;28;20200;-80
2021/01/05 01:22:40;;;;;;;26.53;12.47;;;;;;;;;;5033218;28;20235;-80
2021/01/05 01:25:13;;;;;;;29.73;12.27;;;;;;;;;;5029775;28;20658;-79
2021/01/05 01:27:42;;;;;;;28.20;11.83;;;;;;;;;;5049810;28;20207;-79
2021/01/05 01:30:16;;;;;;;22.23;11.23;;;;;;;;;;5043552;28;20203;-79
2021/01/05 01:33:07;;;;;;;24.90;11.33;;;;;;;;;;5048896;28;20232;-79
2021/01/05 01:35:38;;;;;;;26.87;12.23;;;;;;;;;;5035553;28;20208;-80
2021/01/05 01:38:12;;;;;;;26.53;12.07;;;;;;;;;;5039342;28;20665;-79
2021/01/05 01:40:48;;;;;;;25.90;11.50;;;;;;;;;;5026404;28;20212;-79
2021/01/05 01:43:28;;;;;;;27.37;12.77;;;;;;;;;;5020890;28;20223;-80
2021/01/05 01:46:02;;;;;;;25.50;11.90;;;;;;;;;;5038241;28;20192;-80
2021/01/05 01:48:38;;;;;;;27.00;12.23;;;;;;;;;;5049886;28;20215;-80
2021/01/05 01:51:07;;;;;;;22.90;11.03;;;;;;;;;;5047233;28;20226;-80
2021/01/05 01:54:10;;;;;;;32.87;13.03;;;;;;;;;;5024684;28;20705;-79
2021/01/05 01:56:51;;;;;;;30.77;12.93;;;;;;;;;;5018276;28;20207;-79
2021/01/05 01:59:38;;;;;;;31.23;13.67;;;;;;;;;;5023930;28;20200;-80
2021/01/05 02:02:21;;;;;;;33.37;12.90;;;;;;;;;;5027160;28;20223;-80
2021/01/05 02:05:03;;;;;;;27.17;11.90;;;;;;;;;;5054588;28;20231;-79
2021/01/05 02:08:08;;;;;;;29.00;12.17;;;;;;;;;;5032448;28;20216;-80
2021/01/05 02:11:02;;;;;;;28.43;12.13;;;;;;;;;;5025835;28;20219;-79
2021/01/05 02:14:00;;;;;;;33.30;13.00;;;;;;;;;;5022508;28;20231;-79
2021/01/05 02:16:42;;;;;;;30.33;12.97;;;;;;;;;;5041519;28;20224;-79
2021/01/05 02:19:21;;;;;;;33.53;13.70;;;;;;;;;;5036446;28;20215;-79
2021/01/05 02:21:55;;;;;;;34.87;14.07;;;;;;;;;;5026639;28;20582;-80
2021/01/05 02:24:34;;;;;;;32.13;13.90;;;;;;;;;;5028771;28;20202;-80
2021/01/05 02:27:07;;;;;;;34.30;14.80;;;;;;;;;;5047969;28;20221;-79
2021/01/05 02:29:37;;;;;;;32.60;13.80;;;;;;;;;;5044048;28;20196;-80
2021/01/05 02:32:16;;;;;;;29.67;13.40;;;;;;;;;;5025501;28;20212;-79
2021/01/05 02:35:04;;;;;;;32.33;13.77;;;;;;;;;;5023112;28;20242;-80
2021/01/05 02:38:07;;;;;;;31.77;14.40;;;;;;;;;;5034863;28;20203;-80
2021/01/05 02:41:13;;;;;;;32.37;13.87;;;;;;;;;;5021465;28;20211;-80
2021/01/05 02:44:20;;;;;;;32.13;13.63;;;;;;;;;;5036717;28;20749;-80
2021/01/05 02:47:23;;;;;;;27.27;13.47;;;;;;;;;;5032447;28;20208;-80
2021/01/05 02:50:17;;;;;;;25.80;13.33;;;;;;;;;;5042677;28;20206;-80
2021/01/05 02:53:22;;;;;;;28.17;14.23;;;;;;;;;;5060592;28;20232;-80
2021/01/05 02:56:47;;;;;;;33.57;15.07;;;;;;;;;;5058103;28;20207;-80
2021/01/05 03:00:13;;;;;;;36.10;15.87;;;;;;;;;;5000475;28;20219;-80
2021/01/05 03:03:38;;;;;;;29.43;13.83;;;;;;;;;;5032774;28;20581;-79
2021/01/05 03:06:29;;;;;;;28.20;13.77;;;;;;;;;;5045851;28;20207;-80
2021/01/05 03:09:46;;;;;;;31.43;15.07;;;;;;;;;;5036480;28;20582;-79
2021/01/05 03:13:00;;;;;;;35.03;15.03;;;;;;;;;;5040884;28;20698;-80
2021/01/05 03:15:50;;;;;;;31.33;15.40;;;;;;;;;;5049244;28;20211;-79
2021/01/05 03:18:45;;;;;;;28.27;13.90;;;;;;;;;;5045283;28;20204;-80
2021/01/05 03:21:34;;;;;;;31.80;15.60;;;;;;;;;;5036024;28;20218;-80
2021/01/05 03:24:22;;;;;;;32.57;14.73;;;;;;;;;;5044354;28;20202;-80
2021/01/05 03:27:10;;;;;;;29.73;13.83;;;;;;;;;;5048485;28;20200;-79
2021/01/05 03:30:05;;;;;;;30.30;14.67;;;;;;;;;;5038180;28;20206;-79
2021/01/05 03:32:55;;;;;;;29.50;13.63;;;;;;;;;;5052808;28;20220;-80
2021/01/05 03:35:41;;;;;;;28.37;14.33;;;;;;;;;;5065116;28;20196;-80
2021/01/05 03:38:28;;;;;;;32.37;14.00;;;;;;;;;;5043300;28;20204;-79
2021/01/05 03:41:15;;;;;;;32.43;14.87;;;;;;;;;;5048556;28;20208;-80
2021/01/05 03:44:01;;;;;;;29.73;13.83;;;;;;;;;;5047403;28;20230;-79
2021/01/05 03:46:48;;;;;;;27.03;13.37;;;;;;;;;;5049844;28;20200;-80
2021/01/05 03:49:36;;;;;;;31.87;14.43;;;;;;;;;;5038589;28;20208;-80
2021/01/05 03:52:24;;;;;;;28.87;13.87;;;;;;;;;;5040335;28;20234;-80
2021/01/05 03:55:12;;;;;;;32.33;14.60;;;;;;;;;;5046901;28;20693;-80
2021/01/05 03:57:58;;;;;;;29.57;15.40;;;;;;;;;;5052377;28;20222;-79
2021/01/05 04:00:46;;;;;;;30.70;13.13;;;;;;;;;;5050963;28;20207;-79
2021/01/05 04:03:14;;;;;;;28.87;13.50;;;;;;;;;;5033025;28;20589;-80
2021/01/05 04:05:43;;;;;;;28.63;14.33;;;;;;;;;;5042089;28;20220;-80
2021/01/05 04:08:11;;;;;;;29.50;13.60;;;;;;;;;;5048276;28;20208;-80
2021/01/05 04:10:39;;;;;;;30.23;14.50;;;;;;;;;;5046118;28;20203;-80
2021/01/05 04:13:07;;;;;;;28.70;13.90;;;;;;;;;;5037580;28;20247;-80
2021/01/05 04:15:35;;;;;;;32.03;13.80;;;;;;;;;;5059066;28;20215;-80
2021/01/05 04:18:07;;;;;;;30.03;14.27;;;;;;;;;;5039990;28;20206;-80
2021/01/05 04:20:35;;;;;;;33.07;14.03;;;;;;;;;;5053706;28;20672;-79
2021/01/05 04:23:05;;;;;;;31.03;13.93;;;;;;;;;;5047374;28;20224;-80
2021/01/05 04:25:35;;;;;;;26.97;12.83;;;;;;;;;;5040028;28;20204;-80
2021/01/05 04:28:04;;;;;;;30.07;13.57;;;;;;;;;;5043348;28;20215;-80
2021/01/05 04:30:34;;;;;;;25.83;13.20;;;;;;;;;;5057431;28;20208;-80
2021/01/05 04:33:06;;;;;;;29.67;14.00;;;;;;;;;;5036966;28;20239;-80
2021/01/05 04:35:36;;;;;;;30.77;14.13;;;;;;;;;;5055526;28;20223;-80
2021/01/05 04:38:09;;;;;;;30.37;13.93;;;;;;;;;;5032131;28;20206;-79
2021/01/05 04:40:40;;;;;;;29.77;14.00;;;;;;;;;;5027046;28;20234;-80
2021/01/05 04:43:19;;;;;;;28.07;12.53;;;;;;;;;;5031092;28;20228;-80
2021/01/05 04:45:55;;;;;;;31.00;14.03;;;;;;;;;;5027334;28;20192;-80
2021/01/05 04:48:33;;;;;;;29.00;13.20;;;;;;;;;;5036154;28;20195;-80
2021/01/05 04:51:03;;;;;;;26.93;13.33;;;;;;;;;;5049565;28;20202;-80
2021/01/05 04:53:42;;;;;;;31.77;14.43;;;;;;;;;;5033136;28;20223;-80
2021/01/05 04:56:12;;;;;;;27.93;13.27;;;;;;;;;;5031439;28;20196;-80
2021/01/05 04:58:46;;;;;;;30.07;12.83;;;;;;;;;;5051290;28;20204;-80
2021/01/05 05:01:19;;;;;;;25.83;12.67;;;;;;;;;;5048341;28;20196;-80
2021/01/05 05:04:04;;;;;;;27.00;12.67;;;;;;;;;;5033021;28;20211;-80
2021/01/05 05:06:37;;;;;;;27.23;12.30;;;;;;;;;;5033058;28;20218;-80
2021/01/05 05:09:24;;;;;;;27.97;13.23;;;;;;;;;;5038661;28;20670;-80
2021/01/05 05:12:21;;;;;;;28.03;14.10;;;;;;;;;;5046062;28;20569;-80
2021/01/05 05:15:14;;;;;;;25.43;12.27;;;;;;;;;;5038322;28;20384;-80
2021/01/05 05:17:55;;;;;;;24.73;12.07;;;;;;;;;;5028797;28;20199;-80
2021/01/05 05:20:40;;;;;;;23.43;12.10;;;;;;;;;;5050472;28;20218;-80
2021/01/05 05:23:26;;;;;;;28.63;13.13;;;;;;;;;;5044840;28;20234;-80
2021/01/05 05:26:05;;;;;;;24.27;11.80;;;;;;;;;;5032092;28;20622;-79
2021/01/05 05:28:40;;;;;;;25.90;11.83;;;;;;;;;;5048906;28;20199;-80
2021/01/05 05:31:13;;;;;;;26.20;13.00;;;;;;;;;;5026502;28;20199;-80
2021/01/05 05:33:42;;;;;;;24.93;12.67;;;;;;;;;;5036681;28;20227;-79
2021/01/05 05:36:39;;;;;;;26.63;12.20;;;;;;;;;;5045351;28;20208;-80
2021/01/05 05:39:30;;;;;;;26.13;12.47;;;;;;;;;;5040217;28;20211;-80
2021/01/05 05:42:05;;;;;;;25.77;12.93;;;;;;;;;;5036166;28;20696;-79
2021/01/05 05:44:41;;;;;;;24.90;11.33;;;;;;;;;;5037457;28;20219;-80
2021/01/05 05:47:15;;;;;;;21.70;11.07;;;;;;;;;;5046693;28;20211;-80
2021/01/05 05:49:50;;;;;;;22.77;10.93;;;;;;;;;;5027969;28;20212;-80
2021/01/05 05:52:28;;;;;;;27.90;11.47;;;;;;;;;;5048493;28;20227;-80
2021/01/05 05:54:57;;;;;;;24.70;12.57;;;;;;;;;;5024999;28;20220;-79
2021/01/05 05:57:43;;;;;;;24.20;10.83;;;;;;;;;;5029712;28;20224;-80
2021/01/05 06:00:30;;;;;;;22.07;11.13;;;;;;;;;;5048260;28;20203;-80
2021/01/05 06:03:00;;;;;;;21.93;11.13;;;;;;;;;;5058384;28;20215;-80
2021/01/05 06:05:31;;;;;;;23.57;11.63;;;;;;;;;;5060930;28;20211;-80
2021/01/05 06:08:00;;;;;;;22.70;10.50;;;;;;;;;;5025738;28;20210;-81
2021/01/05 06:10:29;;;;;;;23.40;12.23;;;;;;;;;;5046765;28;20577;-80
2021/01/05 06:13:00;;;;;;;26.93;12.27;;;;;;;;;;5043486;28;20269;-80
2021/01/05 06:15:33;;;;;;;24.37;11.73;;;;;;;;;;5021680;28;20223;-80
2021/01/05 06:18:03;;;;;;;26.33;12.50;;;;;;;;;;5038340;28;20204;-80
2021/01/05 06:20:32;;;;;;;24.87;11.97;;;;;;;;;;5028188;28;20600;-80
2021/01/05 06:23:02;;;;;;;25.93;11.83;;;;;;;;;;5046903;28;20246;-80
2021/01/05 06:25:32;;;;;;;22.93;11.80;;;;;;;;;;5024914;28;20669;-80
2021/01/05 06:28:03;;;;;;;25.90;12.10;;;;;;;;;;5033613;28;20204;-80
2021/01/05 06:30:31;;;;;;;27.33;13.17;;;;;;;;;;5039601;28;20208;-80
2021/01/05 06:33:00;;;;;;;25.40;11.80;;;;;;;;;;5024791;28;20243;-80
2021/01/05 06:35:29;;;;;;;24.33;11.43;;;;;;;;;;5021436;28;20714;-79
2021/01/05 06:37:58;;;;;;;24.40;12.43;;;;;;;;;;5043407;28;20216;-81
2021/01/05 06:40:28;;;;;;;27.07;12.13;;;;;;;;;;5036434;28;20208;-82
2021/01/05 06:42:57;;;;;;;28.53;11.47;;;;;;;;;;5038633;28;20234;-79
2021/01/05 06:45:28;;;;;;;22.27;10.67;;;;;;;;;;5037761;28;20200;-78
2021/01/05 06:47:56;;;;;;;23.83;11.80;;;;;;;;;;5029610;28;20199;-78
2021/01/05 06:50:25;;;;;;;23.90;11.20;;;;;;;;;;5061574;28;20208;-79
2021/01/05 06:52:53;;;;;;;27.10;12.73;;;;;;;;;;5062809;28;20229;-79
2021/01/05 06:55:20;;;;;;;28.47;13.13;;;;;;;;;;5059563;28;20219;-79
2021/01/05 06:57:49;;;;;;;23.37;12.10;;;;;;;;;;5044427;28;20208;-80
2021/01/05 07:00:19;;;;;;;23.53;11.70;;;;;;;;;;5043217;28;20207;-78
2021/01/05 07:02:48;;;;;;;24.07;11.17;;;;;;;;;;5044937;28;20236;-79
2021/01/05 07:05:17;;;;;;;24.70;11.33;;;;;;;;;;5042812;28;20196;-78
2021/01/05 07:07:45;;;;;;;22.63;11.33;;;;;;;;;;5043925;28;20188;-81
2021/01/05 07:10:14;;;;;;;22.67;11.07;;;;;;;;;;5065436;28;20226;-82
2021/01/05 07:12:42;;;;;;;24.93;11.90;;;;;;;;;;5060042;28;20211;-82
2021/01/05 07:15:11;;;;;;;24.23;12.37;;;;;;;;;;5059968;28;20231;-80
2021/01/05 07:17:39;;;;;;;25.37;11.43;;;;;;;;;;5066068;28;20186;-80
2021/01/05 07:20:10;;;;;;;22.80;11.17;;;;;;;;;;5035782;28;20595;-79
2021/01/05 07:22:38;;;;;;;26.70;11.57;;;;;;;;;;5039867;28;20234;-79
2021/01/05 07:25:08;;;;;;;23.23;11.37;;;;;;;;;;5026332;28;20206;-80
2021/01/05 07:27:36;;;;;;;25.87;12.27;;;;;;;;;;5022337;28;20227;-80
2021/01/05 07:30:06;;;;;;;24.13;11.90;;;;;;;;;;5026832;28;20212;-80
2021/01/05 07:32:35;;;;;;;23.77;9.67;;;;;;;;;;5019952;28;20589;-80
2021/01/05 07:35:03;;;;;;;21.33;10.77;;;;;;;;;;5022985;28;20608;-80
2021/01/05 07:37:37;;;;;;;23.63;10.33;;;;;;;;;;5037317;28;20219;-80
2021/01/05 07:40:06;;;;;;;21.13;10.67;;;;;;;;;;5020729;28;20223;-80
2021/01/05 07:42:35;;;;;;;23.77;11.73;;;;;;;;;;5020087;28;20231;-80
2021/01/05 07:45:05;;;;;;;22.63;11.47;;;;;;;;;;5034093;28;20204;-80
2021/01/05 07:47:35;;;;;;;22.77;11.47;;;;;;;;;;5029682;28;20204;-80
2021/01/05 07:50:03;;;;;;;24.60;12.67;;;;;;;;;;5037172;28;20197;-80
2021/01/05 07:52:37;;;;;;;23.57;12.23;;;;;;;;;;5036791;28;20609;-80
2021/01/05 07:55:07;;;;;;;25.33;11.30;;;;;;;;;;5028736;28;20216;-80
2021/01/05 07:57:35;;;;;;;23.83;11.53;;;;;;;;;;5020194;28;20204;-80
2021/01/05 08:00:05;;;;;;;27.70;12.30;;;;;;;;;;5035057;28;20200;-80
2021/01/05 08:02:40;;;;;;;23.40;11.73;;;;;;;;;;5034572;28;20207;-80
2021/01/05 08:05:11;;;;;;;22.50;12.00;;;;;;;;;;5038183;28;20203;-80
2021/01/05 08:07:39;;;;;;;28.93;11.90;;;;;;;;;;5034105;28;20716;-80
2021/01/05 08:10:09;;;;;;;26.93;11.90;;;;;;;;;;5035437;28;20211;-80
2021/01/05 08:12:37;;;;;;;27.10;11.40;;;;;;;;;;5029529;28;20223;-80
2021/01/05 08:15:07;;;;;;;28.47;12.53;;;;;;;;;;5025206;28;20220;-80
2021/01/05 08:17:35;;;;;;;22.57;10.87;;;;;;;;;;5037643;28;20208;-80
2021/01/05 08:20:04;;;;;;;24.60;11.43;;;;;;;;;;5027214;28;20665;-80
2021/01/05 08:22:32;;;;;;;26.87;11.80;;;;;;;;;;5046241;28;20728;-80
2021/01/05 08:25:01;;;;;;;27.73;12.47;;;;;;;;;;5045215;28;20205;-80
2021/01/05 08:27:30;;;;;;;25.77;11.67;;;;;;;;;;5031110;28;20211;-80
2021/01/05 08:29:58;;;;;;;26.37;11.20;;;;;;;;;;5043057;28;20196;-79
2021/01/05 08:32:25;;;;;;;26.23;11.60;;;;;;;;;;5040674;28;20597;-80
2021/01/05 08:34:53;;;;;;;25.07;10.87;;;;;;;;;;5030716;28;20213;-80
2021/01/05 08:37:21;;;;;;;27.33;12.10;;;;;;;;;;5032616;28;20290;-80
2021/01/05 08:39:49;;;;;;;22.47;11.70;;;;;;;;;;5047044;28;20212;-80
2021/01/05 08:42:17;;;;;;;23.93;11.87;;;;;;;;;;5045378;28;20232;-80
2021/01/05 08:44:45;;;;;;;21.57;11.07;;;;;;;;;;5034321;28;20201;-80
2021/01/05 08:47:13;;;;;;;23.03;11.50;;;;;;;;;;5043468;28;20447;-79
2021/01/05 08:49:40;;;;;;;27.67;11.97;;;;;;;;;;5031619;28;20204;-80
2021/01/05 08:52:08;;;;;;;29.57;12.90;;;;;;;;;;5040761;28;20242;-80
2021/01/05 08:54:36;;;;;;;21.50;10.80;;;;;;;;;;5039331;28;20208;-80
2021/01/05 08:57:04;;;;;;;27.80;11.50;;;;;;;;;;5039649;28;20234;-80
2021/01/05 08:59:32;;;;;;;23.97;11.77;;;;;;;;;;5045197;28;20211;-80
2021/01/05 09:02:00;;;;;;;22.07;11.33;;;;;;;;;;5032816;28;20209;-79
2021/01/05 09:04:28;;;;;;;21.23;11.27;;;;;;;;;;5037436;28;20243;-80
2021/01/05 09:06:55;;;;;;;23.77;11.50;;;;;;;;;;5045911;28;20587;-80
2021/01/05 09:09:24;;;;;;;22.40;11.20;;;;;;;;;;5040346;28;20216;-80
2021/01/05 09:11:53;;;;;;;26.87;11.43;;;;;;;;;;5035335;28;20704;-80
2021/01/05 09:14:21;;;;;;;24.23;11.43;;;;;;;;;;5032517;28;20208;-80
2021/01/05 09:16:57;;;;;;;21.23;10.90;;;;;;;;;;5043476;28;20231;-79
2021/01/05 09:19:25;;;;;;;21.20;11.40;;;;;;;;;;5069676;28;20213;-80
2021/01/05 09:21:53;;;;;;;23.83;11.93;;;;;;;;;;5040160;28;20208;-80
2021/01/05 09:24:21;;;;;;;24.83;11.60;;;;;;;;;;5056659;28;20205;-81
2021/01/05 09:26:52;;;;;;;24.80;12.30;;;;;;;;;;5059331;28;20206;-80
2021/01/05 09:29:20;;;;;;;19.47;10.03;;;;;;;;;;5059921;28;20204;-80
2021/01/05 09:31:49;;;;;;;21.77;10.30;;;;;;;;;;5065031;28;20209;-80
2021/01/05 09:34:19;;;;;;;22.77;10.73;;;;;;;;;;5033723;28;20208;-80
2021/01/05 09:36:47;;;;;;;22.93;10.50;;;;;;;;;;5044953;28;20693;-80
2021/01/05 09:39:21;;;;;;;22.37;11.07;;;;;;;;;;5027243;28;20212;-80
2021/01/05 09:41:50;;;;;;;23.60;10.83;;;;;;;;;;5045904;28;20207;-80
2021/01/05 09:44:18;;;;;;;21.87;10.17;;;;;;;;;;5045237;28;20693;-80
2021/01/05 09:46:50;;;;;;;21.23;9.97;;;;;;;;;;5027289;28;20204;-80
2021/01/05 09:49:19;;;;;;;24.60;10.67;;;;;;;;;;5036059;28;20210;-80
2021/01/05 09:51:49;;;;;;;22.63;11.30;;;;;;;;;;5041727;28;20211;-79
2021/01/05 09:54:19;;;;;;;24.30;10.30;;;;;;;;;;5006567;28;20230;-80
2021/01/05 09:56:54;;;;;;;21.63;10.57;;;;;;;;;;5027582;28;20720;-80
2021/01/05 09:59:27;;;;;;;19.17;9.47;;;;;;;;;;5021292;28;20200;-79
2021/01/05 10:01:57;;;;;;;21.87;10.50;;;;;;;;;;5021216;28;20199;-80
2021/01/05 10:04:28;;;;;;;21.67;11.03;;;;;;;;;;5026681;28;20215;-80
2021/01/05 10:06:58;;;;;;;21.37;10.13;;;;;;;;;;5018411;28;20223;-80
2021/01/05 10:09:28;;;;;;;21.00;10.37;;;;;;;;;;5030384;28;20212;-81
2021/01/05 10:11:58;;;;;;;20.17;9.97;;;;;;;;;;5041652;28;20571;-80
2021/01/05 10:14:30;;;;;;;21.40;9.43;;;;;;;;;;5030848;28;20200;-80
2021/01/05 10:17:00;;;;;;;23.53;11.40;;;;;;;;;;5040673;28;20708;-80
2021/01/05 10:19:31;;;;;;;20.00;9.10;;;;;;;;;;5043228;28;20208;-81
2021/01/05 10:22:02;;;;;;;20.43;9.73;;;;;;;;;;5020260;28;20666;-79
2021/01/05 10:24:32;;;;;;;18.27;9.57;;;;;;;;;;5038058;28;20219;-80
2021/01/05 10:27:02;;;;;;;19.70;9.67;;;;;;;;;;5044040;28;20199;-80
2021/01/05 10:29:31;;;;;;;26.33;11.80;;;;;;;;;;5015709;28;20212;-80
2021/01/05 10:32:01;;;;;;;22.07;10.40;;;;;;;;;;5036671;28;20208;-79
2021/01/05 10:34:31;;;;;;;20.60;10.23;;;;;;;;;;5034227;28;20653;-80
2021/01/05 10:37:01;;;;;;;20.77;10.27;;;;;;;;;;5037768;28;20230;-80
2021/01/05 10:39:31;;;;;;;19.17;9.23;;;;;;;;;;5039539;28;20204;-80
2021/01/05 10:42:03;;;;;;;19.27;9.77;;;;;;;;;;5032991;28;20215;-80
2021/01/05 10:44:34;;;;;;;19.03;9.83;;;;;;;;;;5018727;28;20654;-80
2021/01/05 10:47:04;;;;;;;19.93;10.47;;;;;;;;;;5024252;28;20243;-80
2021/01/05 10:49:34;;;;;;;22.30;10.27;;;;;;;;;;5022612;28;20214;-80
2021/01/05 10:52:05;;;;;;;20.40;10.03;;;;;;;;;;5042203;28;20210;-81
2021/01/05 10:54:35;;;;;;;19.73;9.70;;;;;;;;;;5018699;28;20699;-79
2021/01/05 10:57:07;;;;;;;20.37;9.57;;;;;;;;;;5018248;28;20228;-80
2021/01/05 10:59:36;;;;;;;19.03;10.17;;;;;;;;;;5039495;28;20687;-80
2021/01/05 11:02:09;;;;;;;18.77;9.70;;;;;;;;;;5027176;28;20195;-79
2021/01/05 11:04:41;;;;;;;21.97;10.80;;;;;;;;;;5016521;28;20227;-79
2021/01/05 11:07:13;;;;;;;21.07;9.77;;;;;;;;;;5048176;28;20211;-79
2021/01/05 11:09:46;;;;;;;20.83;9.67;;;;;;;;;;5044450;28;21147;-80
2021/01/05 11:12:22;;;;;;;17.67;9.90;;;;;;;;;;5049008;28;20231;-79
2021/01/05 11:14:52;;;;;;;17.10;9.97;;;;;;;;;;5030159;28;20218;-79
2021/01/05 11:17:22;;;;;;;19.10;10.03;;;;;;;;;;5036335;28;20224;-80
2021/01/05 11:19:53;;;;;;;19.57;10.87;;;;;;;;;;5036334;28;20199;-80
2021/01/05 11:22:24;;;;;;;20.13;10.60;;;;;;;;;;5017087;28;20220;-80
2021/01/05 11:24:56;;;;;;;20.43;9.40;;;;;;;;;;5035110;28;20215;-80
2021/01/05 11:27:26;;;;;;;21.77;10.50;;;;;;;;;;5020451;28;20207;-80
2021/01/05 11:29:55;;;;;;;20.37;10.37;;;;;;;;;;5024351;28;20207;-79
2021/01/05 11:32:25;;;;;;;19.47;10.17;;;;;;;;;;5012278;28;20240;-81
2021/01/05 11:34:56;;;;;;;21.03;9.90;;;;;;;;;;5023888;28;20498;-79
2021/01/05 11:37:25;;;;;;;20.90;10.67;;;;;;;;;;5043717;28;20235;-80
2021/01/05 11:39:54;;;;;;;20.37;9.50;;;;;;;;;;5032180;28;20203;-79
2021/01/05 11:42:24;;;;;;;19.27;9.70;;;;;;;;;;5028168;28;20223;-80
2021/01/05 11:44:54;;;;;;;23.00;10.67;;;;;;;;;;5040707;28;20708;-79
2021/01/05 11:47:25;;;;;;;17.97;9.80;;;;;;;;;;5022851;28;20207;-80
2021/01/05 11:49:55;;;;;;;19.13;9.80;;;;;;;;;;5026053;28;20356;-79
2021/01/05 11:52:23;;;;;;;21.20;10.33;;;;;;;;;;5025466;28;20605;-80
2021/01/05 11:54:53;;;;;;;17.67;9.27;;;;;;;;;;5032488;28;20211;-80
2021/01/05 11:57:22;;;;;;;18.43;9.27;;;;;;;;;;5045113;28;20239;-80
2021/01/05 11:59:51;;;;;;;20.23;9.63;;;;;;;;;;5034251;28;20575;-79
2021/01/05 12:02:21;;;;;;;20.93;9.23;;;;;;;;;;5025784;28;20243;-80
2021/01/05 12:04:56;;;;;;;21.40;9.43;;;;;;;;;;5022684;28;20680;-80
2021/01/05 12:07:24;;;;;;;20.80;10.77;;;;;;;;;;5048246;28;20230;-80
2021/01/05 12:09:55;;;;;;;22.23;9.57;;;;;;;;;;5022613;28;20685;-79
2021/01/05 12:12:24;;;;;;;19.27;9.73;;;;;;;;;;5022023;28;20231;-80
2021/01/05 12:14:54;;;;;;;19.50;9.20;;;;;;;;;;5019890;28;20204;-79
2021/01/05 12:17:23;;;;;;;22.30;9.80;;;;;;;;;;5047510;28;20230;-80
2021/01/05 12:19:54;;;;;;;22.63;10.73;;;;;;;;;;5032713;28;20255;-80
2021/01/05 12:22:25;;;;;;;19.30;9.03;;;;;;;;;;5040231;28;20585;-80
2021/01/05 12:24:55;;;;;;;17.50;9.13;;;;;;;;;;5041331;28;20208;-80
2021/01/05 12:27:25;;;;;;;19.13;9.50;;;;;;;;;;5032131;28;20206;-80
2021/01/05 12:29:56;;;;;;;17.43;8.70;;;;;;;;;;5049950;28;20201;-79
2021/01/05 12:32:25;;;;;;;21.47;10.33;;;;;;;;;;5058449;28;20220;-80
2021/01/05 12:34:55;;;;;;;17.60;9.07;;;;;;;;;;5041412;28;20527;-79
2021/01/05 12:37:26;;;;;;;19.80;9.80;;;;;;;;;;5044836;28;20228;-80
2021/01/05 12:39:55;;;;;;;19.73;10.10;;;;;;;;;;5062480;28;20204;-80
2021/01/05 12:42:27;;;;;;;18.00;9.37;;;;;;;;;;5048889;28;20218;-80
2021/01/05 12:44:57;;;;;;;19.00;9.20;;;;;;;;;;5060115;28;20681;-80
2021/01/05 12:47:27;;;;;;;19.00;9.20;;;;;;;;;;5040747;28;20210;-81
2021/01/05 12:49:57;;;;;;;18.20;9.63;;;;;;;;;;5037643;28;20205;-80
2021/01/05 12:52:30;;;;;;;18.57;9.00;;;;;;;;;;5055419;28;20238;-80
2021/01/05 12:55:01;;;;;;;20.13;9.67;;;;;;;;;;5048460;28;20216;-79
2021/01/05 12:57:31;;;;;;;21.10;9.83;;;;;;;;;;5052297;28;20227;-79
2021/01/05 13:00:02;;;;;;;18.97;9.57;;;;;;;;;;5058250;28;20510;-80
2021/01/05 13:02:46;;;;;;;19.00;9.87;;;;;;;;;;5033209;28;20227;-82
2021/01/05 13:05:24;;;;;;;22.70;10.50;;;;;;;;;;5057251;28;20222;-80
2021/01/05 13:07:54;;;;;;;20.93;10.10;;;;;;;;;;5036650;28;20209;-80
2021/01/05 13:10:24;;;;;;;20.20;9.17;;;;;;;;;;5056030;28;20210;-79
2021/01/05 13:12:53;;;;;;;18.40;9.33;;;;;;;;;;5058949;28;20231;-79
2021/01/05 13:15:22;;;;;;;19.97;9.93;;;;;;;;;;5047240;28;20218;-80
2021/01/05 13:17:54;;;;;;;20.60;10.57;;;;;;;;;;5036892;28;20222;-79
2021/01/05 13:20:24;;;;;;;18.67;9.67;;;;;;;;;;5054923;28;20204;-80
2021/01/05 13:22:55;;;;;;;16.60;9.57;;;;;;;;;;5034078;28;20217;-80
2021/01/05 13:25:24;;;;;;;21.57;10.43;;;;;;;;;;5031318;28;20216;-80
2021/01/05 13:27:53;;;;;;;19.17;10.00;;;;;;;;;;5049665;28;20211;-80
2021/01/05 13:30:24;;;;;;;16.53;9.37;;;;;;;;;;5048521;28;20488;-80
2021/01/05 13:32:54;;;;;;;18.50;9.07;;;;;;;;;;5019856;28;20231;-79
2021/01/05 13:35:25;;;;;;;19.83;9.63;;;;;;;;;;5037274;28;20207;-80
2021/01/05 13:37:57;;;;;;;18.40;8.80;;;;;;;;;;5026940;28;20231;-80
2021/01/05 13:40:26;;;;;;;15.70;8.73;;;;;;;;;;5040193;28;20200;-79
2021/01/05 13:42:56;;;;;;;17.63;8.83;;;;;;;;;;5026314;28;20230;-79
2021/01/05 13:45:29;;;;;;;20.47;10.33;;;;;;;;;;5048052;28;20217;-79
2021/01/05 13:47:58;;;;;;;19.30;9.20;;;;;;;;;;5021702;28;20200;-80
2021/01/05 13:50:27;;;;;;;18.60;9.83;;;;;;;;;;5015811;28;20563;-80
2021/01/05 13:52:58;;;;;;;17.97;9.80;;;;;;;;;;5025209;28;20572;-80
2021/01/05 13:55:28;;;;;;;19.93;9.60;;;;;;;;;;5044084;28;20567;-80
2021/01/05 13:57:58;;;;;;;19.03;9.57;;;;;;;;;;5019400;28;20216;-81
2021/01/05 14:00:28;;;;;;;20.17;9.70;;;;;;;;;;5019485;28;20254;-80
2021/01/05 14:02:59;;;;;;;19.80;9.73;;;;;;;;;;5027270;28;20235;-81
2021/01/05 14:05:29;;;;;;;18.43;9.23;;;;;;;;;;5020818;28;20282;-79
2021/01/05 14:07:58;;;;;;;22.77;9.67;;;;;;;;;;5032619;28;20200;-80
2021/01/05 14:10:29;;;;;;;18.93;9.27;;;;;;;;;;5019979;28;20200;-79
2021/01/05 14:12:59;;;;;;;22.47;10.30;;;;;;;;;;5034872;28;20231;-81
2021/01/05 14:15:29;;;;;;;21.47;9.87;;;;;;;;;;5019202;28;20203;-78
2021/01/05 14:17:58;;;;;;;21.20;10.27;;;;;;;;;;5034439;28;20585;-79
2021/01/05 14:20:28;;;;;;;19.23;8.90;;;;;;;;;;5049942;28;20503;-80
2021/01/05 14:22:58;;;;;;;21.80;10.27;;;;;;;;;;5046404;28;20200;-78
2021/01/05 14:25:28;;;;;;;17.60;8.97;;;;;;;;;;5045940;28;20369;-78
2021/01/05 14:27:58;;;;;;;19.73;9.87;;;;;;;;;;5065296;28;20172;-78
2021/01/05 14:30:28;;;;;;;16.67;9.00;;;;;;;;;;5063401;28;20180;-78
2021/01/05 14:32:58;;;;;;;19.27;9.83;;;;;;;;;;5043506;28;20222;-79
2021/01/05 14:35:28;;;;;;;18.43;9.13;;;;;;;;;;5015462;28;20200;-79
2021/01/05 14:37:59;;;;;;;22.37;10.07;;;;;;;;;;5015220;28;20216;-79
2021/01/05 14:40:30;;;;;;;20.93;10.20;;;;;;;;;;5041786;28;20200;-77
2021/01/05 14:43:01;;;;;;;17.40;8.87;;;;;;;;;;5032401;28;20230;-79
2021/01/05 14:45:31;;;;;;;20.43;9.80;;;;;;;;;;5022878;28;20677;-78
2021/01/05 14:48:02;;;;;;;18.40;9.40;;;;;;;;;;5038561;28;20199;-79
2021/01/05 14:50:33;;;;;;;17.37;9.17;;;;;;;;;;5034378;28;20192;-78
2021/01/05 14:53:04;;;;;;;21.60;9.80;;;;;;;;;;5018571;28;20760;-81
2021/01/05 14:55:37;;;;;;;18.70;9.43;;;;;;;;;;5015238;28;20241;-79
2021/01/05 14:58:08;;;;;;;18.77;8.97;;;;;;;;;;5019957;28;20592;-79
2021/01/05 15:00:39;;;;;;;19.80;9.47;;;;;;;;;;5039229;28;20586;-79